Detall de PIREP

Printer-friendly versionPDF version

[2013/10/10 07:17:00]
Flight IATA:CT0001
Pilot Number:041
Company ICAO:CAT
Aircraft Type:C172/A
PAX:2
Departing Airport: LELC
Destination Airport: LEGE
Alternate Airport:LEBL
Online: VATSIM
Route:DCT ALT B46 MITOS N608 SOPET B28 EBROX DCT LATRO H110 MAMUK DCT
Flight Level:FL080
No Slew and time accel
No pause
Crash detect
Detect pilot in Cockpit between each 30 and 45 minutes
07:17 Zero fuel Weight: 2010 Lbs, Fuel Weight: 335 Lbs
07:17 VATSIM:LELC 100700Z 33006KT 9999 FEW030 20/17 Q1016 NOSIG
07:17 VATSIM:LEGE 100700Z 00000KT 9999 FEW010 SCT030 14/13 Q1016
07:18 VOICE CATALONIAN
07:20 Parking Brakes off
07:24 Take-off
07:24 Take off Weight: 2345 Lbs
07:24 Wind: 333º @ 005 Knots Heading: 044º
07:24 POS N37º 46´ 22´´ W000º 48´ 53´´
07:24 Flaps:1 at 71 Knots
07:25 Flaps:0 at 59 Knots
07:39 Wind:162º@001 Knots Heading: 357º Ground Speed: 081 Knots Altitude 6968 ft
07:40 TOC
07:40 Fuel Weight: 320 Lb
07:54 Wind:297º@001 Knots Heading: 067º Ground Speed: 112 Knots Altitude 8106 ft
08:09 Wind:297º@002 Knots Heading: 359º Ground Speed: 113 Knots Altitude 8087 ft
08:24 Wind:322º@005 Knots Heading: 358º Ground Speed: 115 Knots Altitude 8080 ft
08:39 Wind:304º@008 Knots Heading: 356º Ground Speed: 108 Knots Altitude 8149 ft
08:54 Wind:304º@008 Knots Heading: 042º Ground Speed: 110 Knots Altitude 8123 ft
09:09 Wind:314º@020 Knots Heading: 036º Ground Speed: 108 Knots Altitude 8110 ft
09:24 Wind:314º@020 Knots Heading: 036º Ground Speed: 109 Knots Altitude 8106 ft
09:39 Wind:314º@020 Knots Heading: 005º Ground Speed: 100 Knots Altitude 8126 ft
09:54 Wind:314º@020 Knots Heading: 006º Ground Speed: 099 Knots Altitude 8106 ft
10:09 Wind:306º@016 Knots Heading: 035º Ground Speed: 111 Knots Altitude 8090 ft
10:22 TOD
10:22 Fuel Weight: 205 Lb
10:24 Wind:310º@009 Knots Heading: 077º Ground Speed: 129 Knots Altitude 7208 ft
10:34 Flaps:1 at 83 Knots
10:36 Flaps:2 at 77 Knots
10:38 Flaps:3 at 68 Knots
10:39 Wind:164º@002 Knots Heading: 175º Ground Speed: 064 Knots Altitude 1469 ft
10:40 TouchDown:Rate -27 ft/min Speed: 60 Knots
10:40 Flaps:2 at 46 Knots
10:40 VATSIM:LEGE 101000Z 17003KT 140V200 9999 FEW020 SCT030 17/14 Q1015
10:40 Land
10:40 Wind:172º@002 Knots
10:40 Heading: 196º
10:40 Flight Duration: 03:16
10:40 Landing Weight: 2203 Lbs
10:40 POS N41º 54´ 18´´ E002º 45´ 43´´
10:42 Parking brakes on
10:42 Block to Block Duration: 03:22
10:42 Final Fuel: 191 Lbls
10:42 Spent Fuel: 143 Lbls
10:42 Flight Length: 348 NM
10:42 TOD Land Length: 31 NM

Exportar CSV

Powered by Drupal - Modified by Danger4k